Tocumen International Airport
MPTO : rendu visible

Aérodrome :











RETROUVEZ-NOUS SUR...

 
LOGIN :

S'inscrire | Disclaimer

   EN    FR    IT 

 









Légende :    VFR   VFR Marginal   IFR   IFR Intensif   IFR Très Intensif
Visi : 
Plafond : 
>= 8 km
>= 3000ft
5 à 8 km
1000 à 3000 ft
1500m à 5 km
500 à 1000 ft
800 à 1500m
200 à 500 ft
< 800m
< 200 ft
Symboles :   Orages  Brouillard  Fortes neiges  Fortes précipitations  Vent > 20 kt






- Altitude de l'aérodrome : 135 ft
- Code IATA : PTY


MPTO - Tocumen International

DERNIER METAR :
  • 260100Z 02004KT 9999 SCT016 BKN080 25/24 Q1012 NOSIG

METARs EXPIRÉS :
  • 260000Z 03003KT 9999 SCT016 SCT090 25/24 Q1012 NOSIG
  • 252300Z 00000KT 9999 SCT016 SCT090 26/24 Q1011 NOSIG

TAF TAF MPTO
Valide du 26 à 00h jusqu'au 27 à 06h UTC


252300Z 2600/2706 05006KT 9999 SCT018 SCT090
TEMPO 2604/2606 29005KT
BECMG 2607/2611 00000KT
PROB30 2619/2623 18008KT 7000 TSRA SCT016CB BKN090
FIR MPZL / Amérique du Nord



MET'MAP, la Météo Aéronautique d'un coup d'oeil ! - Copyright ORBIFLY Décembre 2007 - Disclaimer

ORBIFLY MET'MAP TEAM :

Programmation & Développement : Alexandra Zaïnal
Sur une idée originale de : Baudouin d'Aumeries
Assistance à la programmation : Marc-Olivier Méhu
Soutien technique & logistique : Manuel Goepfert

Contact : metmap@orbifly.com




SOURCES & CREDITS :

   NOAA       Earth
Advisory